sensor_id;sensor_type;location;lat;lon;timestamp;P1;durP1;ratioP1;P2;durP2;ratioP2
60239;SDS011;46102;39.012;-7.064;2023-03-23T00:01:23;6.28;;;2.22;;
60239;SDS011;46102;39.012;-7.064;2023-03-23T00:03:26;6.47;;;1.60;;
60239;SDS011;46102;39.012;-7.064;2023-03-23T00:05:29;3.72;;;1.88;;
60239;SDS011;46102;39.012;-7.064;2023-03-23T00:07:30;5.25;;;1.90;;
60239;SDS011;46102;39.012;-7.064;2023-03-23T00:09:30;4.22;;;1.77;;
60239;SDS011;46102;39.012;-7.064;2023-03-23T00:11:34;2.53;;;1.42;;
60239;SDS011;46102;39.012;-7.064;2023-03-23T00:13:35;3.03;;;1.33;;
60239;SDS011;46102;39.012;-7.064;2023-03-23T00:15:36;6.40;;;1.83;;
60239;SDS011;46102;39.012;-7.064;2023-03-23T00:17:41;4.78;;;2.15;;
60239;SDS011;46102;39.012;-7.064;2023-03-23T00:19:43;3.97;;;1.98;;
60239;SDS011;46102;39.012;-7.064;2023-03-23T00:21:47;4.95;;;2.65;;
60239;SDS011;46102;39.012;-7.064;2023-03-23T00:23:47;4.55;;;2.20;;
60239;SDS011;46102;39.012;-7.064;2023-03-23T00:25:49;7.90;;;2.25;;
60239;SDS011;46102;39.012;-7.064;2023-03-23T00:27:53;7.18;;;3.80;;
60239;SDS011;46102;39.012;-7.064;2023-03-23T00:29:54;5.78;;;3.22;;
60239;SDS011;46102;39.012;-7.064;2023-03-23T00:31:55;7.50;;;4.03;;
60239;SDS011;46102;39.012;-7.064;2023-03-23T00:33:57;6.63;;;3.67;;
60239;SDS011;46102;39.012;-7.064;2023-03-23T00:38:01;12.57;;;5.47;;
60239;SDS011;46102;39.012;-7.064;2023-03-23T00:40:02;6.72;;;4.38;;
60239;SDS011;46102;39.012;-7.064;2023-03-23T00:42:11;10.10;;;4.70;;
60239;SDS011;46102;39.012;-7.064;2023-03-23T00:44:13;9.43;;;3.80;;
60239;SDS011;46102;39.012;-7.064;2023-03-23T00:46:24;7.72;;;3.60;;
60239;SDS011;46102;39.012;-7.064;2023-03-23T00:48:25;3.92;;;3.00;;
60239;SDS011;46102;39.012;-7.064;2023-03-23T00:50:26;5.78;;;2.95;;
60239;SDS011;46102;39.012;-7.064;2023-03-23T00:52:27;9.23;;;3.67;;
60239;SDS011;46102;39.012;-7.064;2023-03-23T00:54:28;6.60;;;3.65;;
60239;SDS011;46102;39.012;-7.064;2023-03-23T00:56:29;8.40;;;4.38;;
60239;SDS011;46102;39.012;-7.064;2023-03-23T00:58:30;10.88;;;4.57;;
60239;SDS011;46102;39.012;-7.064;2023-03-23T01:00:31;9.40;;;5.00;;
60239;SDS011;46102;39.012;-7.064;2023-03-23T01:02:31;12.75;;;6.03;;
60239;SDS011;46102;39.012;-7.064;2023-03-23T01:04:32;13.55;;;5.68;;
60239;SDS011;46102;39.012;-7.064;2023-03-23T01:06:37;8.70;;;4.90;;
60239;SDS011;46102;39.012;-7.064;2023-03-23T01:08:39;8.88;;;4.25;;
60239;SDS011;46102;39.012;-7.064;2023-03-23T01:10:47;8.57;;;4.05;;
60239;SDS011;46102;39.012;-7.064;2023-03-23T01:12:49;9.07;;;3.65;;
60239;SDS011;46102;39.012;-7.064;2023-03-23T01:14:50;9.75;;;3.67;;
60239;SDS011;46102;39.012;-7.064;2023-03-23T01:16:51;5.13;;;3.25;;
60239;SDS011;46102;39.012;-7.064;2023-03-23T01:18:52;9.60;;;3.53;;
60239;SDS011;46102;39.012;-7.064;2023-03-23T01:20:53;6.85;;;3.25;;
60239;SDS011;46102;39.012;-7.064;2023-03-23T01:22:54;8.32;;;3.30;;
60239;SDS011;46102;39.012;-7.064;2023-03-23T01:25:00;6.13;;;3.08;;
60239;SDS011;46102;39.012;-7.064;2023-03-23T01:27:01;5.38;;;2.63;;
60239;SDS011;46102;39.012;-7.064;2023-03-23T01:29:06;5.60;;;2.83;;
60239;SDS011;46102;39.012;-7.064;2023-03-23T01:31:09;4.72;;;3.15;;
60239;SDS011;46102;39.012;-7.064;2023-03-23T01:33:14;4.00;;;2.20;;
60239;SDS011;46102;39.012;-7.064;2023-03-23T01:35:16;7.13;;;2.35;;
60239;SDS011;46102;39.012;-7.064;2023-03-23T01:37:17;4.50;;;1.77;;
60239;SDS011;46102;39.012;-7.064;2023-03-23T01:39:20;2.22;;;2.03;;
60239;SDS011;46102;39.012;-7.064;2023-03-23T01:41:21;6.82;;;1.77;;
60239;SDS011;46102;39.012;-7.064;2023-03-23T01:43:23;8.95;;;2.78;;
60239;SDS011;46102;39.012;-7.064;2023-03-23T01:45:32;6.28;;;1.83;;
60239;SDS011;46102;39.012;-7.064;2023-03-23T01:47:35;1.50;;;1.20;;
60239;SDS011;46102;39.012;-7.064;2023-03-23T01:49:37;8.07;;;1.63;;
60239;SDS011;46102;39.012;-7.064;2023-03-23T01:51:45;6.82;;;1.70;;
60239;SDS011;46102;39.012;-7.064;2023-03-23T01:53:52;7.18;;;1.73;;
60239;SDS011;46102;39.012;-7.064;2023-03-23T01:55:56;4.78;;;2.00;;
60239;SDS011;46102;39.012;-7.064;2023-03-23T01:57:59;8.60;;;1.88;;
60239;SDS011;46102;39.012;-7.064;2023-03-23T02:00:02;3.83;;;1.80;;
60239;SDS011;46102;39.012;-7.064;2023-03-23T02:04:17;5.53;;;1.27;;
60239;SDS011;46102;39.012;-7.064;2023-03-23T02:06:21;1.77;;;1.33;;
60239;SDS011;46102;39.012;-7.064;2023-03-23T02:08:41;6.40;;;1.67;;
60239;SDS011;46102;39.012;-7.064;2023-03-23T02:10:44;7.90;;;1.88;;
60239;SDS011;46102;39.012;-7.064;2023-03-23T02:12:46;7.60;;;1.75;;
60239;SDS011;46102;39.012;-7.064;2023-03-23T02:14:47;6.00;;;1.75;;
60239;SDS011;46102;39.012;-7.064;2023-03-23T02:16:58;7.15;;;1.55;;
60239;SDS011;46102;39.012;-7.064;2023-03-23T02:21:34;5.45;;;1.88;;
60239;SDS011;46102;39.012;-7.064;2023-03-23T02:23:52;2.03;;;1.90;;
60239;SDS011;46102;39.012;-7.064;2023-03-23T02:41:09;5.05;;;1.75;;
60239;SDS011;46102;39.012;-7.064;2023-03-23T02:43:16;6.40;;;1.90;;
60239;SDS011;46102;39.012;-7.064;2023-03-23T02:45:20;8.18;;;1.88;;
60239;SDS011;46102;39.012;-7.064;2023-03-23T02:47:25;3.83;;;1.88;;
60239;SDS011;46102;39.012;-7.064;2023-03-23T02:49:29;3.63;;;1.80;;
60239;SDS011;46102;39.012;-7.064;2023-03-23T02:51:33;4.97;;;1.80;;
60239;SDS011;46102;39.012;-7.064;2023-03-23T02:53:36;5.95;;;1.60;;
60239;SDS011;46102;39.012;-7.064;2023-03-23T02:55:41;10.68;;;2.03;;
60239;SDS011;46102;39.012;-7.064;2023-03-23T02:57:49;3.65;;;1.40;;
60239;SDS011;46102;39.012;-7.064;2023-03-23T02:59:52;5.07;;;2.00;;
60239;SDS011;46102;39.012;-7.064;2023-03-23T03:01:55;3.83;;;2.13;;
60239;SDS011;46102;39.012;-7.064;2023-03-23T03:04:09;5.03;;;2.13;;
60239;SDS011;46102;39.012;-7.064;2023-03-23T03:10:40;5.07;;;1.58;;
60239;SDS011;46102;39.012;-7.064;2023-03-23T03:12:56;5.95;;;1.88;;
60239;SDS011;46102;39.012;-7.064;2023-03-23T03:15:30;9.63;;;1.90;;
60239;SDS011;46102;39.012;-7.064;2023-03-23T03:17:51;5.93;;;2.42;;
60239;SDS011;46102;39.012;-7.064;2023-03-23T03:19:59;7.32;;;1.75;;
60239;SDS011;46102;39.012;-7.064;2023-03-23T03:22:09;8.52;;;2.65;;
60239;SDS011;46102;39.012;-7.064;2023-03-23T03:24:16;5.22;;;1.95;;
60239;SDS011;46102;39.012;-7.064;2023-03-23T03:26:24;6.30;;;2.08;;
60239;SDS011;46102;39.012;-7.064;2023-03-23T03:28:34;6.47;;;2.00;;
60239;SDS011;46102;39.012;-7.064;2023-03-23T03:30:36;6.50;;;2.40;;
60239;SDS011;46102;39.012;-7.064;2023-03-23T03:32:41;5.43;;;2.40;;
60239;SDS011;46102;39.012;-7.064;2023-03-23T03:34:47;6.80;;;2.13;;
60239;SDS011;46102;39.012;-7.064;2023-03-23T03:36:51;3.67;;;2.00;;
60239;SDS011;46102;39.012;-7.064;2023-03-23T03:38:55;6.57;;;2.20;;
60239;SDS011;46102;39.012;-7.064;2023-03-23T03:40:59;3.15;;;2.03;;
60239;SDS011;46102;39.012;-7.064;2023-03-23T03:43:00;5.18;;;1.90;;
60239;SDS011;46102;39.012;-7.064;2023-03-23T03:45:02;4.18;;;2.08;;
60239;SDS011;46102;39.012;-7.064;2023-03-23T03:47:03;7.72;;;2.15;;
60239;SDS011;46102;39.012;-7.064;2023-03-23T03:49:05;5.28;;;2.70;;
60239;SDS011;46102;39.012;-7.064;2023-03-23T03:51:10;7.85;;;2.00;;
60239;SDS011;46102;39.012;-7.064;2023-03-23T03:53:15;7.97;;;2.00;;
60239;SDS011;46102;39.012;-7.064;2023-03-23T03:55:17;8.23;;;1.92;;
60239;SDS011;46102;39.012;-7.064;2023-03-23T03:57:21;3.95;;;1.95;;
60239;SDS011;46102;39.012;-7.064;2023-03-23T03:59:40;7.05;;;2.38;;
60239;SDS011;46102;39.012;-7.064;2023-03-23T04:02:00;6.72;;;2.30;;
60239;SDS011;46102;39.012;-7.064;2023-03-23T04:04:01;7.40;;;2.20;;
60239;SDS011;46102;39.012;-7.064;2023-03-23T04:06:07;8.63;;;2.45;;
60239;SDS011;46102;39.012;-7.064;2023-03-23T04:08:08;5.95;;;2.10;;
60239;SDS011;46102;39.012;-7.064;2023-03-23T04:10:10;10.77;;;1.83;;
60239;SDS011;46102;39.012;-7.064;2023-03-23T04:12:15;3.78;;;1.92;;
60239;SDS011;46102;39.012;-7.064;2023-03-23T04:14:31;9.27;;;3.03;;
60239;SDS011;46102;39.012;-7.064;2023-03-23T04:16:32;8.10;;;2.47;;
60239;SDS011;46102;39.012;-7.064;2023-03-23T04:18:35;5.80;;;2.17;;
60239;SDS011;46102;39.012;-7.064;2023-03-23T04:20:37;5.38;;;2.50;;
60239;SDS011;46102;39.012;-7.064;2023-03-23T04:22:39;5.68;;;2.13;;
60239;SDS011;46102;39.012;-7.064;2023-03-23T04:24:43;10.73;;;2.80;;
60239;SDS011;46102;39.012;-7.064;2023-03-23T04:26:50;7.35;;;2.30;;
60239;SDS011;46102;39.012;-7.064;2023-03-23T04:28:59;4.32;;;2.00;;
60239;SDS011;46102;39.012;-7.064;2023-03-23T04:31:09;4.78;;;2.33;;
60239;SDS011;46102;39.012;-7.064;2023-03-23T04:33:16;5.82;;;2.30;;
60239;SDS011;46102;39.012;-7.064;2023-03-23T04:35:22;10.45;;;2.10;;
60239;SDS011;46102;39.012;-7.064;2023-03-23T04:37:38;7.55;;;2.20;;
60239;SDS011;46102;39.012;-7.064;2023-03-23T04:39:39;7.68;;;2.42;;
60239;SDS011;46102;39.012;-7.064;2023-03-23T04:41:41;4.32;;;1.75;;
60239;SDS011;46102;39.012;-7.064;2023-03-23T04:43:50;2.80;;;1.80;;
60239;SDS011;46102;39.012;-7.064;2023-03-23T04:46:02;5.63;;;2.05;;
60239;SDS011;46102;39.012;-7.064;2023-03-23T04:48:05;8.40;;;2.30;;
60239;SDS011;46102;39.012;-7.064;2023-03-23T04:50:15;10.35;;;2.20;;
60239;SDS011;46102;39.012;-7.064;2023-03-23T04:52:16;10.75;;;3.38;;
60239;SDS011;46102;39.012;-7.064;2023-03-23T04:56:25;5.07;;;2.35;;
60239;SDS011;46102;39.012;-7.064;2023-03-23T04:58:27;3.35;;;2.10;;
60239;SDS011;46102;39.012;-7.064;2023-03-23T05:00:49;4.03;;;1.90;;
60239;SDS011;46102;39.012;-7.064;2023-03-23T05:02:51;7.40;;;3.17;;
60239;SDS011;46102;39.012;-7.064;2023-03-23T05:04:56;3.50;;;1.95;;
60239;SDS011;46102;39.012;-7.064;2023-03-23T05:07:00;8.55;;;2.72;;
60239;SDS011;46102;39.012;-7.064;2023-03-23T05:11:05;4.63;;;2.42;;
60239;SDS011;46102;39.012;-7.064;2023-03-23T05:13:11;7.65;;;2.85;;
60239;SDS011;46102;39.012;-7.064;2023-03-23T05:15:13;7.00;;;2.63;;
60239;SDS011;46102;39.012;-7.064;2023-03-23T05:17:16;6.03;;;2.30;;
60239;SDS011;46102;39.012;-7.064;2023-03-23T05:19:21;10.60;;;2.95;;
60239;SDS011;46102;39.012;-7.064;2023-03-23T05:21:23;6.03;;;2.90;;
60239;SDS011;46102;39.012;-7.064;2023-03-23T05:23:27;8.18;;;2.67;;
60239;SDS011;46102;39.012;-7.064;2023-03-23T05:25:38;6.05;;;2.67;;
60239;SDS011;46102;39.012;-7.064;2023-03-23T05:27:47;7.28;;;3.00;;
60239;SDS011;46102;39.012;-7.064;2023-03-23T05:30:07;8.60;;;2.85;;
60239;SDS011;46102;39.012;-7.064;2023-03-23T05:32:12;6.53;;;2.95;;
60239;SDS011;46102;39.012;-7.064;2023-03-23T05:34:13;8.55;;;3.60;;
60239;SDS011;46102;39.012;-7.064;2023-03-23T05:36:22;10.93;;;4.20;;
60239;SDS011;46102;39.012;-7.064;2023-03-23T05:38:41;8.05;;;4.10;;
60239;SDS011;46102;39.012;-7.064;2023-03-23T05:40:45;13.27;;;5.20;;
60239;SDS011;46102;39.012;-7.064;2023-03-23T05:42:49;9.45;;;4.47;;
60239;SDS011;46102;39.012;-7.064;2023-03-23T05:44:56;9.70;;;5.13;;
60239;SDS011;46102;39.012;-7.064;2023-03-23T05:46:57;11.65;;;4.93;;
60239;SDS011;46102;39.012;-7.064;2023-03-23T05:48:58;10.43;;;5.65;;
60239;SDS011;46102;39.012;-7.064;2023-03-23T05:51:06;10.23;;;5.20;;
60239;SDS011;46102;39.012;-7.064;2023-03-23T05:53:11;11.02;;;4.35;;
60239;SDS011;46102;39.012;-7.064;2023-03-23T05:55:13;13.98;;;4.88;;
60239;SDS011;46102;39.012;-7.064;2023-03-23T05:59:22;10.55;;;5.28;;
60239;SDS011;46102;39.012;-7.064;2023-03-23T06:01:26;11.32;;;4.85;;
60239;SDS011;46102;39.012;-7.064;2023-03-23T06:03:27;10.70;;;4.35;;
60239;SDS011;46102;39.012;-7.064;2023-03-23T06:05:46;8.27;;;3.90;;
60239;SDS011;46102;39.012;-7.064;2023-03-23T06:07:51;6.50;;;3.40;;
60239;SDS011;46102;39.012;-7.064;2023-03-23T06:09:54;8.13;;;4.10;;
60239;SDS011;46102;39.012;-7.064;2023-03-23T06:12:09;7.72;;;3.78;;
60239;SDS011;46102;39.012;-7.064;2023-03-23T06:14:21;7.30;;;3.33;;
60239;SDS011;46102;39.012;-7.064;2023-03-23T06:16:22;9.07;;;3.97;;
60239;SDS011;46102;39.012;-7.064;2023-03-23T06:18:27;8.15;;;4.22;;
60239;SDS011;46102;39.012;-7.064;2023-03-23T06:20:39;12.77;;;5.05;;
60239;SDS011;46102;39.012;-7.064;2023-03-23T06:23:01;8.15;;;4.40;;
60239;SDS011;46102;39.012;-7.064;2023-03-23T06:27:14;6.93;;;3.50;;
60239;SDS011;46102;39.012;-7.064;2023-03-23T06:29:17;7.55;;;4.28;;
60239;SDS011;46102;39.012;-7.064;2023-03-23T06:31:22;10.65;;;4.53;;
60239;SDS011;46102;39.012;-7.064;2023-03-23T06:33:24;11.27;;;4.22;;
60239;SDS011;46102;39.012;-7.064;2023-03-23T06:35:52;7.15;;;3.60;;
60239;SDS011;46102;39.012;-7.064;2023-03-23T06:38:11;8.55;;;3.60;;
60239;SDS011;46102;39.012;-7.064;2023-03-23T06:40:21;6.93;;;4.13;;
60239;SDS011;46102;39.012;-7.064;2023-03-23T06:42:28;11.32;;;3.83;;
60239;SDS011;46102;39.012;-7.064;2023-03-23T06:44:49;7.35;;;3.70;;
60239;SDS011;46102;39.012;-7.064;2023-03-23T06:46:51;10.75;;;3.08;;
60239;SDS011;46102;39.012;-7.064;2023-03-23T06:49:00;12.38;;;3.38;;
60239;SDS011;46102;39.012;-7.064;2023-03-23T06:51:12;6.40;;;3.40;;
60239;SDS011;46102;39.012;-7.064;2023-03-23T06:53:16;7.40;;;3.30;;
60239;SDS011;46102;39.012;-7.064;2023-03-23T06:55:18;8.07;;;3.17;;
60239;SDS011;46102;39.012;-7.064;2023-03-23T06:57:19;12.73;;;3.35;;
60239;SDS011;46102;39.012;-7.064;2023-03-23T06:59:22;5.85;;;2.95;;
60239;SDS011;46102;39.012;-7.064;2023-03-23T07:01:23;10.18;;;3.70;;
60239;SDS011;46102;39.012;-7.064;2023-03-23T07:03:30;12.07;;;2.97;;
60239;SDS011;46102;39.012;-7.064;2023-03-23T07:05:34;12.63;;;3.85;;
60239;SDS011;46102;39.012;-7.064;2023-03-23T07:07:36;8.82;;;3.15;;
60239;SDS011;46102;39.012;-7.064;2023-03-23T07:09:55;13.23;;;4.47;;
60239;SDS011;46102;39.012;-7.064;2023-03-23T07:11:58;23.65;;;8.18;;
60239;SDS011;46102;39.012;-7.064;2023-03-23T07:14:11;20.92;;;10.10;;
60239;SDS011;46102;39.012;-7.064;2023-03-23T07:16:14;26.75;;;11.27;;
60239;SDS011;46102;39.012;-7.064;2023-03-23T07:18:15;34.92;;;13.90;;
60239;SDS011;46102;39.012;-7.064;2023-03-23T07:20:18;34.22;;;14.23;;
60239;SDS011;46102;39.012;-7.064;2023-03-23T07:22:20;25.33;;;13.35;;
60239;SDS011;46102;39.012;-7.064;2023-03-23T07:24:28;29.40;;;12.57;;
60239;SDS011;46102;39.012;-7.064;2023-03-23T07:26:41;29.13;;;12.77;;
60239;SDS011;46102;39.012;-7.064;2023-03-23T07:28:42;30.55;;;12.80;;
60239;SDS011;46102;39.012;-7.064;2023-03-23T07:30:56;25.02;;;12.82;;
60239;SDS011;46102;39.012;-7.064;2023-03-23T07:32:57;19.52;;;9.23;;
60239;SDS011;46102;39.012;-7.064;2023-03-23T07:34:59;21.80;;;8.75;;
60239;SDS011;46102;39.012;-7.064;2023-03-23T07:37:21;16.73;;;7.93;;
60239;SDS011;46102;39.012;-7.064;2023-03-23T07:39:26;16.80;;;7.15;;
60239;SDS011;46102;39.012;-7.064;2023-03-23T07:41:30;14.93;;;6.95;;
60239;SDS011;46102;39.012;-7.064;2023-03-23T07:43:33;9.93;;;5.10;;
60239;SDS011;46102;39.012;-7.064;2023-03-23T07:45:56;15.05;;;6.30;;
60239;SDS011;46102;39.012;-7.064;2023-03-23T07:48:01;9.00;;;4.80;;
60239;SDS011;46102;39.012;-7.064;2023-03-23T07:50:04;11.38;;;5.00;;
60239;SDS011;46102;39.012;-7.064;2023-03-23T07:52:11;7.20;;;4.40;;
60239;SDS011;46102;39.012;-7.064;2023-03-23T07:54:13;11.20;;;4.47;;
60239;SDS011;46102;39.012;-7.064;2023-03-23T07:56:27;7.55;;;5.28;;
60239;SDS011;46102;39.012;-7.064;2023-03-23T07:58:39;24.90;;;6.07;;
60239;SDS011;46102;39.012;-7.064;2023-03-23T08:00:40;12.90;;;5.75;;
60239;SDS011;46102;39.012;-7.064;2023-03-23T08:02:43;7.45;;;3.90;;
60239;SDS011;46102;39.012;-7.064;2023-03-23T08:05:02;11.07;;;3.95;;
60239;SDS011;46102;39.012;-7.064;2023-03-23T08:07:18;8.65;;;4.03;;
60239;SDS011;46102;39.012;-7.064;2023-03-23T08:09:26;9.57;;;4.63;;
60239;SDS011;46102;39.012;-7.064;2023-03-23T08:11:50;7.15;;;3.65;;
60239;SDS011;46102;39.012;-7.064;2023-03-23T08:14:26;5.32;;;4.05;;
60239;SDS011;46102;39.012;-7.064;2023-03-23T08:16:53;10.07;;;4.43;;
60239;SDS011;46102;39.012;-7.064;2023-03-23T08:19:07;6.82;;;4.25;;
60239;SDS011;46102;39.012;-7.064;2023-03-23T08:21:11;14.25;;;5.22;;
60239;SDS011;46102;39.012;-7.064;2023-03-23T08:23:31;9.73;;;5.03;;
60239;SDS011;46102;39.012;-7.064;2023-03-23T08:25:33;10.20;;;5.03;;
60239;SDS011;46102;39.012;-7.064;2023-03-23T08:27:53;7.88;;;4.55;;
60239;SDS011;46102;39.012;-7.064;2023-03-23T08:30:32;7.47;;;4.72;;
60239;SDS011;46102;39.012;-7.064;2023-03-23T08:32:52;9.02;;;5.03;;
60239;SDS011;46102;39.012;-7.064;2023-03-23T08:35:15;16.02;;;5.95;;
60239;SDS011;46102;39.012;-7.064;2023-03-23T08:37:43;7.90;;;4.65;;
60239;SDS011;46102;39.012;-7.064;2023-03-23T08:40:06;9.73;;;4.53;;
60239;SDS011;46102;39.012;-7.064;2023-03-23T08:42:22;8.13;;;4.05;;
60239;SDS011;46102;39.012;-7.064;2023-03-23T08:44:23;3.03;;;2.70;;
60239;SDS011;46102;39.012;-7.064;2023-03-23T08:46:37;6.18;;;2.55;;
60239;SDS011;46102;39.012;-7.064;2023-03-23T08:48:44;4.75;;;2.83;;
60239;SDS011;46102;39.012;-7.064;2023-03-23T08:51:08;8.50;;;2.60;;
60239;SDS011;46102;39.012;-7.064;2023-03-23T08:53:21;6.05;;;2.47;;
60239;SDS011;46102;39.012;-7.064;2023-03-23T08:55:22;10.35;;;4.75;;
60239;SDS011;46102;39.012;-7.064;2023-03-23T08:57:43;7.80;;;3.22;;
60239;SDS011;46102;39.012;-7.064;2023-03-23T08:59:58;6.63;;;3.70;;
60239;SDS011;46102;39.012;-7.064;2023-03-23T09:02:10;7.65;;;3.72;;
60239;SDS011;46102;39.012;-7.064;2023-03-23T09:04:26;8.15;;;4.10;;
60239;SDS011;46102;39.012;-7.064;2023-03-23T09:06:51;8.82;;;4.47;;
60239;SDS011;46102;39.012;-7.064;2023-03-23T09:08:52;8.98;;;4.80;;
60239;SDS011;46102;39.012;-7.064;2023-03-23T09:10:58;9.63;;;4.53;;
60239;SDS011;46102;39.012;-7.064;2023-03-23T09:15:00;8.98;;;4.15;;
60239;SDS011;46102;39.012;-7.064;2023-03-23T09:17:05;5.25;;;3.72;;
60239;SDS011;46102;39.012;-7.064;2023-03-23T09:19:07;7.97;;;4.82;;
60239;SDS011;46102;39.012;-7.064;2023-03-23T09:21:09;10.20;;;4.32;;
60239;SDS011;46102;39.012;-7.064;2023-03-23T09:23:10;10.45;;;3.78;;
60239;SDS011;46102;39.012;-7.064;2023-03-23T09:25:14;7.57;;;4.13;;
60239;SDS011;46102;39.012;-7.064;2023-03-23T09:27:17;9.05;;;5.57;;
60239;SDS011;46102;39.012;-7.064;2023-03-23T09:29:18;8.23;;;4.13;;
60239;SDS011;46102;39.012;-7.064;2023-03-23T09:31:18;9.38;;;2.65;;
60239;SDS011;46102;39.012;-7.064;2023-03-23T09:33:24;6.95;;;2.50;;
60239;SDS011;46102;39.012;-7.064;2023-03-23T09:35:26;5.78;;;2.38;;
60239;SDS011;46102;39.012;-7.064;2023-03-23T09:37:28;6.03;;;2.90;;
60239;SDS011;46102;39.012;-7.064;2023-03-23T09:39:30;5.60;;;2.30;;
60239;SDS011;46102;39.012;-7.064;2023-03-23T09:41:36;7.95;;;2.95;;
60239;SDS011;46102;39.012;-7.064;2023-03-23T09:43:54;8.43;;;3.30;;
60239;SDS011;46102;39.012;-7.064;2023-03-23T09:51:08;5.93;;;2.03;;
60239;SDS011;46102;39.012;-7.064;2023-03-23T09:53:22;6.70;;;2.15;;
60239;SDS011;46102;39.012;-7.064;2023-03-23T09:55:35;5.38;;;2.13;;
60239;SDS011;46102;39.012;-7.064;2023-03-23T09:57:41;6.47;;;2.08;;
60239;SDS011;46102;39.012;-7.064;2023-03-23T10:00:17;11.27;;;2.33;;
60239;SDS011;46102;39.012;-7.064;2023-03-23T10:02:40;2.88;;;2.08;;
60239;SDS011;46102;39.012;-7.064;2023-03-23T10:06:53;3.42;;;1.63;;
60239;SDS011;46102;39.012;-7.064;2023-03-23T10:09:00;7.07;;;1.98;;
60239;SDS011;46102;39.012;-7.064;2023-03-23T10:11:16;1.27;;;1.17;;
60239;SDS011;46102;39.012;-7.064;2023-03-23T10:15:26;5.03;;;1.02;;
60239;SDS011;46102;39.012;-7.064;2023-03-23T10:17:33;5.57;;;1.33;;
60239;SDS011;46102;39.012;-7.064;2023-03-23T10:22:12;5.13;;;1.60;;
60239;SDS011;46102;39.012;-7.064;2023-03-23T10:24:19;2.25;;;1.20;;
60239;SDS011;46102;39.012;-7.064;2023-03-23T10:26:37;2.45;;;1.15;;
60239;SDS011;46102;39.012;-7.064;2023-03-23T10:28:44;7.45;;;1.35;;
60239;SDS011;46102;39.012;-7.064;2023-03-23T10:30:51;4.03;;;1.17;;
60239;SDS011;46102;39.012;-7.064;2023-03-23T10:33:02;2.05;;;1.65;;
60239;SDS011;46102;39.012;-7.064;2023-03-23T10:35:10;3.00;;;1.25;;
60239;SDS011;46102;39.012;-7.064;2023-03-23T10:37:17;3.63;;;1.48;;
60239;SDS011;46102;39.012;-7.064;2023-03-23T10:39:23;2.75;;;1.10;;
60239;SDS011;46102;39.012;-7.064;2023-03-23T10:41:27;5.47;;;1.50;;
60239;SDS011;46102;39.012;-7.064;2023-03-23T10:43:28;3.13;;;1.33;;
60239;SDS011;46102;39.012;-7.064;2023-03-23T10:45:30;4.75;;;1.33;;
60239;SDS011;46102;39.012;-7.064;2023-03-23T10:47:33;6.68;;;1.77;;
60239;SDS011;46102;39.012;-7.064;2023-03-23T10:49:49;1.98;;;1.23;;
60239;SDS011;46102;39.012;-7.064;2023-03-23T10:51:59;1.88;;;1.30;;
60239;SDS011;46102;39.012;-7.064;2023-03-23T10:54:09;3.90;;;1.13;;
60239;SDS011;46102;39.012;-7.064;2023-03-23T10:56:22;2.13;;;1.42;;
60239;SDS011;46102;39.012;-7.064;2023-03-23T11:00:25;1.08;;;0.93;;
60239;SDS011;46102;39.012;-7.064;2023-03-23T11:02:29;3.40;;;1.25;;
60239;SDS011;46102;39.012;-7.064;2023-03-23T11:04:30;4.07;;;1.35;;
60239;SDS011;46102;39.012;-7.064;2023-03-23T11:06:33;3.45;;;0.98;;
60239;SDS011;46102;39.012;-7.064;2023-03-23T11:08:51;2.53;;;1.00;;
60239;SDS011;46102;39.012;-7.064;2023-03-23T11:10:57;1.60;;;1.00;;
60239;SDS011;46102;39.012;-7.064;2023-03-23T11:12:59;4.10;;;1.13;;
60239;SDS011;46102;39.012;-7.064;2023-03-23T11:15:09;1.95;;;1.02;;
60239;SDS011;46102;39.012;-7.064;2023-03-23T11:17:25;1.35;;;1.25;;
60239;SDS011;46102;39.012;-7.064;2023-03-23T11:19:29;3.65;;;0.82;;
60239;SDS011;46102;39.012;-7.064;2023-03-23T11:21:36;2.67;;;0.90;;
60239;SDS011;46102;39.012;-7.064;2023-03-23T11:23:37;3.92;;;1.02;;
60239;SDS011;46102;39.012;-7.064;2023-03-23T11:25:59;5.10;;;1.23;;
60239;SDS011;46102;39.012;-7.064;2023-03-23T11:28:16;1.52;;;1.00;;
60239;SDS011;46102;39.012;-7.064;2023-03-23T11:30:26;1.45;;;0.88;;
60239;SDS011;46102;39.012;-7.064;2023-03-23T11:32:30;5.38;;;1.20;;
60239;SDS011;46102;39.012;-7.064;2023-03-23T11:36:37;2.53;;;1.00;;
60239;SDS011;46102;39.012;-7.064;2023-03-23T11:38:42;2.55;;;1.17;;
60239;SDS011;46102;39.012;-7.064;2023-03-23T11:40:50;4.35;;;1.10;;
60239;SDS011;46102;39.012;-7.064;2023-03-23T11:44:54;4.47;;;1.42;;
60239;SDS011;46102;39.012;-7.064;2023-03-23T11:47:16;3.22;;;1.25;;
60239;SDS011;46102;39.012;-7.064;2023-03-23T11:51:50;4.13;;;0.90;;
60239;SDS011;46102;39.012;-7.064;2023-03-23T11:54:04;4.85;;;1.10;;
60239;SDS011;46102;39.012;-7.064;2023-03-23T11:58:36;2.13;;;0.95;;
60239;SDS011;46102;39.012;-7.064;2023-03-23T12:00:40;4.45;;;1.00;;
60239;SDS011;46102;39.012;-7.064;2023-03-23T12:05:30;2.00;;;0.98;;
60239;SDS011;46102;39.012;-7.064;2023-03-23T12:07:54;2.00;;;1.35;;
60239;SDS011;46102;39.012;-7.064;2023-03-23T12:21:28;3.22;;;1.05;;
60239;SDS011;46102;39.012;-7.064;2023-03-23T12:28:22;3.72;;;1.15;;
60239;SDS011;46102;39.012;-7.064;2023-03-23T12:38:02;2.33;;;0.90;;
60239;SDS011;46102;39.012;-7.064;2023-03-23T12:42:30;2.42;;;1.67;;
60239;SDS011;46102;39.012;-7.064;2023-03-23T12:44:47;3.28;;;2.20;;
60239;SDS011;46102;39.012;-7.064;2023-03-23T12:46:51;2.65;;;1.23;;
60239;SDS011;46102;39.012;-7.064;2023-03-23T12:53:26;2.63;;;1.48;;
60239;SDS011;46102;39.012;-7.064;2023-03-23T12:57:50;1.50;;;0.90;;
60239;SDS011;46102;39.012;-7.064;2023-03-23T13:04:21;3.85;;;1.27;;
60239;SDS011;46102;39.012;-7.064;2023-03-23T13:08:38;1.63;;;0.80;;
60239;SDS011;46102;39.012;-7.064;2023-03-23T13:10:45;4.25;;;1.50;;
60239;SDS011;46102;39.012;-7.064;2023-03-23T13:12:50;1.50;;;1.00;;
60239;SDS011;46102;39.012;-7.064;2023-03-23T13:19:43;4.03;;;1.50;;
60239;SDS011;46102;39.012;-7.064;2023-03-23T13:23:50;1.75;;;0.80;;
60239;SDS011;46102;39.012;-7.064;2023-03-23T13:28:03;3.65;;;1.10;;
60239;SDS011;46102;39.012;-7.064;2023-03-23T13:30:05;4.30;;;1.25;;
60239;SDS011;46102;39.012;-7.064;2023-03-23T13:34:36;2.25;;;1.70;;
60239;SDS011;46102;39.012;-7.064;2023-03-23T13:36:39;3.10;;;1.42;;
60239;SDS011;46102;39.012;-7.064;2023-03-23T13:38:45;2.80;;;1.23;;
60239;SDS011;46102;39.012;-7.064;2023-03-23T13:40:50;3.67;;;1.05;;
60239;SDS011;46102;39.012;-7.064;2023-03-23T13:42:54;2.00;;;1.40;;
60239;SDS011;46102;39.012;-7.064;2023-03-23T13:45:05;3.22;;;1.05;;
60239;SDS011;46102;39.012;-7.064;2023-03-23T13:49:27;5.28;;;1.65;;
60239;SDS011;46102;39.012;-7.064;2023-03-23T13:51:34;4.43;;;1.20;;
60239;SDS011;46102;39.012;-7.064;2023-03-23T13:53:45;3.67;;;1.73;;
60239;SDS011;46102;39.012;-7.064;2023-03-23T13:55:49;3.25;;;1.40;;
60239;SDS011;46102;39.012;-7.064;2023-03-23T13:57:53;1.67;;;1.58;;
60239;SDS011;46102;39.012;-7.064;2023-03-23T13:59:57;8.07;;;1.50;;
60239;SDS011;46102;39.012;-7.064;2023-03-23T14:02:27;3.47;;;1.67;;
60239;SDS011;46102;39.012;-7.064;2023-03-23T14:04:30;1.48;;;1.02;;
60239;SDS011;46102;39.012;-7.064;2023-03-23T14:06:33;2.60;;;1.10;;
60239;SDS011;46102;39.012;-7.064;2023-03-23T14:08:41;2.13;;;1.08;;
60239;SDS011;46102;39.012;-7.064;2023-03-23T14:11:01;2.47;;;1.60;;
60239;SDS011;46102;39.012;-7.064;2023-03-23T14:13:16;2.72;;;1.55;;
60239;SDS011;46102;39.012;-7.064;2023-03-23T14:15:17;3.55;;;1.33;;
60239;SDS011;46102;39.012;-7.064;2023-03-23T14:17:19;5.32;;;1.70;;
60239;SDS011;46102;39.012;-7.064;2023-03-23T14:21:39;3.28;;;1.50;;
60239;SDS011;46102;39.012;-7.064;2023-03-23T14:23:42;5.30;;;1.13;;
60239;SDS011;46102;39.012;-7.064;2023-03-23T14:25:43;3.28;;;1.38;;
60239;SDS011;46102;39.012;-7.064;2023-03-23T14:27:44;1.80;;;0.90;;
60239;SDS011;46102;39.012;-7.064;2023-03-23T14:29:58;2.75;;;1.98;;